Airfield :
LOGIN :

Register | Disclaimer

   EN    FR    IT 

 










Legend :    VFR   Marginal VFR   IFR   Intensive IFR   Very Intensive IFR
Visi :
Ceiling :
>= 8 km
>= 3000ft
5 to 8 km
1000 to 3000 ft
1500m to 5 km
500 to 1000 ft
800 to 1500m
200 to 500 ft
< 800m
< 200 ft
Symbols :   Thunderstorms  Fog  Heavy snow  Heavy precipitations  Wind > 20 kt
SIGMETs :     Misc.  Thunderstorms  Icing  Turbulence  Mountain Waves  Volcanic Ashes







- Airport Elevation : 505 ft
- IATA code : SXB
- Download approach charts


LFST - Strasbourg

CURRENT METAR :
  • 261230Z AUTO 36006KT 330V030 9999 SCT043 BKN052 10/M00 Q1030 NOSIG

EXPIRED METARs :
  • 261200Z AUTO VRB03KT 9999 FEW044 SCT058 10/01 Q1031 NOSIG
  • 261130Z AUTO 03005KT 350V070 9999 FEW043 OVC054 09/00 Q1031 NOSIG
  • 261100Z AUTO 02005KT 320V050 9999 FEW035 SCT048 BKN056 09/00 Q1031 NOSIG
  • 261030Z AUTO 03006KT 010V080 9999 BKN034 BKN043 OVC052 09/01 Q1031 NOSIG
  • 261000Z AUTO 06009KT 9999 FEW033 BKN050 09/01 Q1031 NOSIG

TAF TAF LFST
Valid from the 26 at 12:00 until the 27 at 12:00 UTC


261103Z 2612/2712 01007KT 9999 FEW040 SCT055
No reported NOTAMs for that airfield.



MET'MAP, your aeronautical weather chart ! - Copyright ORBIFLY December 2007 - Disclaimer

ORBIFLY MET'MAP TEAM :

Programming & Development : Alexandra Zaïnal
Concept & Development : Baudouin d'Aumeries
Co-Development & Prog : Marc-Olivier Méhu
Technical & hardware support : Manuel Goepfert

Contact : metmap@orbifly.com




SOURCES & CREDITS :

   NOAA